Time;durP1;ratioP1;P1;durP2;ratioP2;P2;SDS_P1;SDS_P2;PMS_P1;PMS_P2;Temp;Humidity;BMP_temperature;BMP_pressure;BME280_temperature;BME280_humidity;BME280_pressure;Samples;Min_cycle;Max_cycle;Signal;HPM_P1;HPM_P2
2021/07/08 00:04:29;;;;;;;4.80;4.40;;;;;;;18.18;93.94;96469.56;5147511;57;20134;-72
2021/07/08 00:09:31;;;;;;;4.25;3.85;;;;;;;18.15;94.95;96469.81;5159066;57;20239;-72
2021/07/08 00:14:35;;;;;;;4.07;3.67;;;;;;;18.29;94.40;96472.38;5160963;57;20133;-72
2021/07/08 00:19:38;;;;;;;3.92;3.60;;;;;;;18.07;95.12;96468.81;5160877;57;20116;-71
2021/07/08 00:24:40;;;;;;;3.85;3.55;;;;;;;18.09;94.84;96458.63;5160586;57;20753;-72
2021/07/08 00:29:42;;;;;;;3.42;3.13;;;;;;;18.05;94.57;96452.53;5160324;57;20133;-70
2021/07/08 00:34:45;;;;;;;3.78;3.47;;;;;;;18.02;94.47;96442.38;5160295;57;20651;-71
2021/07/08 00:39:47;;;;;;;4.00;3.60;;;;;;;17.94;94.50;96444.16;5160443;57;20269;-72
2021/07/08 00:44:50;;;;;;;3.80;3.40;;;;;;;17.96;94.24;96429.69;5160269;57;20134;-72
2021/07/08 00:49:52;;;;;;;3.38;3.08;;;;;;;17.89;94.16;96428.13;5160275;57;20125;-72
2021/07/08 00:54:54;;;;;;;4.07;3.13;;;;;;;17.87;94.42;96436.25;5160095;57;20129;-73
2021/07/08 00:59:57;;;;;;;5.07;3.40;;;;;;;17.85;94.60;96438.81;5160082;57;20147;-72
2021/07/08 01:05:00;;;;;;;3.40;3.10;;;;;;;17.97;93.93;96436.78;5160287;57;20129;-71
2021/07/08 01:10:03;;;;;;;3.47;3.28;;;;;;;17.98;94.67;96450.25;5159649;57;20134;-72
2021/07/08 01:15:08;;;;;;;4.38;3.40;;;;;;;17.93;94.49;96448.22;5160090;57;20177;-72
2021/07/08 01:20:14;;;;;;;4.20;3.80;;;;;;;18.03;94.12;96441.09;5160289;57;20143;-71
2021/07/08 01:25:17;;;;;;;5.75;4.10;;;;;;;17.89;94.93;96444.91;5151181;57;20701;-72
2021/07/08 01:30:20;;;;;;;3.75;3.45;;;;;;;17.95;94.60;96442.88;5159635;57;20688;-72
2021/07/08 01:35:23;;;;;;;3.72;3.42;;;;;;;17.97;94.81;96440.34;5159449;57;20124;-72
2021/07/08 01:40:26;;;;;;;3.88;3.50;;;;;;;18.03;94.70;96427.13;5159216;57;20124;-72
2021/07/08 01:45:28;;;;;;;3.90;3.30;;;;;;;17.96;93.86;96415.69;5159616;57;20187;-71
2021/07/08 01:50:31;;;;;;;3.20;2.67;;;;;;;18.02;93.95;96403.22;5159545;57;20142;-71
2021/07/08 01:55:33;;;;;;;3.30;2.60;;;;;;;17.95;93.19;96381.38;5159125;57;20134;-72
2021/07/08 02:00:35;;;;;;;3.38;2.15;;;;;;;17.99;93.17;96376.28;5159194;57;20662;-72
2021/07/08 02:05:38;;;;;;;2.45;2.25;;;;;;;18.03;93.17;96370.41;5159109;57;20587;-72
2021/07/08 02:10:40;;;;;;;2.45;2.25;;;;;;;18.00;93.06;96360.28;5158956;57;20129;-72
2021/07/08 02:15:43;;;;;;;4.80;2.40;;;;;;;17.92;93.55;96365.59;5158799;57;20143;-72
2021/07/08 02:20:45;;;;;;;2.78;2.55;;;;;;;18.08;92.67;96364.81;5158519;57;20129;-72
2021/07/08 02:25:48;;;;;;;2.10;2.00;;;;;;;18.04;93.13;96380.34;5159028;57;20139;-72
2021/07/08 02:30:50;;;;;;;2.95;2.55;;;;;;;18.13;92.69;96369.66;5158723;57;20217;-72
2021/07/08 02:35:54;;;;;;;2.30;2.20;;;;;;;18.34;92.56;96370.88;5149951;57;20190;-72
2021/07/08 02:40:56;;;;;;;3.03;2.50;;;;;;;18.32;92.41;96369.84;5166610;57;20130;-72
2021/07/08 02:45:59;;;;;;;2.47;2.20;;;;;;;18.26;92.62;96374.72;5185680;57;20116;-72
2021/07/08 02:51:01;;;;;;;2.70;2.50;;;;;;;18.23;92.72;96373.69;5167181;57;20134;-72
2021/07/08 02:56:04;;;;;;;4.80;2.42;;;;;;;18.26;93.03;96372.69;5158939;57;20124;-72
2021/07/08 03:01:06;;;;;;;4.22;2.83;;;;;;;18.34;92.55;96384.84;5158520;57;20133;-72
2021/07/08 03:06:09;;;;;;;4.57;2.50;;;;;;;18.32;92.74;96390.19;5158249;57;20121;-71
2021/07/08 03:11:12;;;;;;;3.25;2.80;;;;;;;18.36;93.24;96407.47;5158076;57;20138;-72
2021/07/08 03:16:14;;;;;;;7.40;2.47;;;;;;;18.38;93.29;96409.78;5158464;57;20124;-72
2021/07/08 03:21:17;;;;;;;8.40;2.55;;;;;;;18.38;93.35;96404.97;5158253;57;20645;-72
2021/07/08 03:26:19;;;;;;;6.22;2.50;;;;;;;18.45;93.27;96393.25;5157860;57;20196;-72
2021/07/08 03:31:22;;;;;;;6.13;2.53;;;;;;;18.27;93.29;96399.38;5158347;57;20670;-72
2021/07/08 03:36:25;;;;;;;2.63;2.42;;;;;;;18.28;93.08;96408.53;5161163;57;20111;-72
2021/07/08 03:41:27;;;;;;;6.60;2.63;;;;;;;18.23;93.18;96404.47;5161285;57;20137;-72
2021/07/08 03:46:30;;;;;;;3.45;2.90;;;;;;;18.30;93.26;96405.97;5160956;57;20124;-72
2021/07/08 03:51:33;;;;;;;3.20;2.83;;;;;;;18.23;93.08;96403.69;5161149;57;20138;-72
2021/07/08 03:56:35;;;;;;;5.28;2.58;;;;;;;18.40;92.25;96424.78;5160793;57;20134;-72
2021/07/08 04:01:39;;;;;;;3.72;2.60;;;;;;;18.43;92.91;96429.34;5161293;57;20124;-73
2021/07/08 04:06:42;;;;;;;3.05;2.70;;;;;;;18.21;92.91;96429.38;5161044;57;20142;-72
2021/07/08 04:11:44;;;;;;;3.83;2.85;;;;;;;18.21;92.77;96431.41;5160783;57;20148;-73
2021/07/08 04:16:46;;;;;;;4.93;2.80;;;;;;;18.06;93.81;96414.16;5160621;57;20116;-72
2021/07/08 04:21:49;;;;;;;4.43;2.33;;;;;;;18.22;93.09;96427.34;5160670;57;20134;-72
2021/07/08 04:26:52;;;;;;;2.45;2.22;;;;;;;18.17;93.13;96426.09;5160187;57;20125;-72
2021/07/08 04:31:54;;;;;;;4.18;2.72;;;;;;;18.23;93.23;96449.22;5160514;57;20134;-72
2021/07/08 04:36:56;;;;;;;2.67;2.53;;;;;;;18.36;92.62;96449.44;5160195;57;20124;-72
2021/07/08 04:41:59;;;;;;;4.53;2.30;;;;;;;18.43;93.09;96448.94;5160475;57;20147;-71
2021/07/08 04:47:01;;;;;;;2.58;2.38;;;;;;;18.23;93.00;96443.63;5159715;57;20946;-72
2021/07/08 04:52:05;;;;;;;4.40;3.08;;;;;;;18.13;93.65;96439.56;5160253;57;20151;-72
2021/07/08 04:57:07;;;;;;;3.45;3.15;;;;;;;18.08;93.98;96433.97;5160648;57;20133;-72
2021/07/08 05:02:10;;;;;;;5.78;3.50;;;;;;;18.03;94.58;96435.50;5160318;57;20129;-72
2021/07/08 05:07:13;;;;;;;3.92;3.50;;;;;;;18.16;94.51;96426.63;5160123;57;20152;-72
2021/07/08 05:12:16;;;;;;;4.53;4.15;;;;;;;18.12;94.34;96429.66;5160517;57;20138;-72
2021/07/08 05:17:21;;;;;;;6.13;4.47;;;;;;;18.30;93.94;96437.50;5159873;57;20139;-72
2021/07/08 05:22:23;;;;;;;4.68;4.28;;;;;;;18.48;93.26;96437.00;5155480;57;20130;-72
2021/07/08 05:27:26;;;;;;;4.90;4.50;;;;;;;18.49;93.54;96432.19;5160994;57;20130;-72
2021/07/08 05:32:29;;;;;;;5.07;4.45;;;;;;;18.67;93.06;96444.84;5159984;57;20134;-72
2021/07/08 05:37:31;;;;;;;5.55;4.55;;;;;;;18.76;92.17;96436.94;5159300;57;20138;-72
2021/07/08 05:42:34;;;;;;;12.85;5.18;;;;;;;18.84;92.41;96431.56;5159619;57;20653;-72
2021/07/08 05:47:36;;;;;;;5.53;4.95;;;;;;;18.92;92.08;96441.72;5159308;57;20121;-71
2021/07/08 05:52:38;;;;;;;7.60;5.25;;;;;;;18.71;93.54;96429.31;5159523;57;20138;-72
2021/07/08 05:57:47;;;;;;;6.75;6.13;;;;;;;18.68;92.48;96444.31;5157957;57;20172;-72
2021/07/08 06:02:50;;;;;;;7.85;6.70;;;;;;;18.80;93.04;96436.66;5159446;57;20717;-72
2021/07/08 06:07:53;;;;;;;6.25;5.72;;;;;;;19.09;91.08;96430.44;5158715;57;20125;-73
2021/07/08 06:12:55;;;;;;;6.32;5.75;;;;;;;19.64;89.62;96435.78;5159054;57;20670;-73
2021/07/08 06:17:58;;;;;;;5.60;5.20;;;;;;;19.91;88.11;96454.44;5150038;57;20222;-73
2021/07/08 06:23:00;;;;;;;5.97;5.32;;;;;;;19.88;87.61;96457.53;5150279;57;20147;-73
2021/07/08 06:28:03;;;;;;;10.00;6.03;;;;;;;19.85;86.77;96442.50;5158662;57;20116;-72
2021/07/08 06:33:05;;;;;;;7.07;6.38;;;;;;;19.67;88.17;96442.38;5150250;57;20133;-72
2021/07/08 06:38:08;;;;;;;7.72;6.93;;;;;;;19.41;88.96;96462.41;5158487;57;20147;-72
2021/07/08 06:43:10;;;;;;;8.80;7.90;;;;;;;19.17;90.26;96462.25;5159045;57;20125;-72
2021/07/08 06:48:13;;;;;;;10.18;8.18;;;;;;;19.02;91.61;96442.94;5143133;57;20139;-73
2021/07/08 06:53:16;;;;;;;9.52;7.95;;;;;;;19.24;91.32;96442.88;5154783;57;20130;-71
2021/07/08 06:58:18;;;;;;;8.63;7.80;;;;;;;19.35;90.31;96450.47;5143414;57;20125;-73
2021/07/08 07:03:22;;;;;;;8.90;8.07;;;;;;;19.65;89.08;96434.47;5156889;57;20142;-72
2021/07/08 07:08:24;;;;;;;10.23;8.25;;;;;;;19.83;88.15;96453.47;5170380;46;20625;-74
2021/07/08 07:13:27;;;;;;;9.63;7.65;;;;;;;20.19;86.90;96459.84;5161408;57;20130;-73
2021/07/08 07:18:29;;;;;;;8.07;7.35;;;;;;;20.02;86.39;96464.81;5156897;57;20230;-72
2021/07/08 07:23:32;;;;;;;8.35;7.57;;;;;;;20.01;87.08;96457.69;5152312;57;20216;-72
2021/07/08 07:28:35;;;;;;;8.30;7.50;;;;;;;20.19;87.33;96462.66;5144664;57;20229;-73
2021/07/08 07:33:37;;;;;;;15.27;11.98;;;;;;;19.63;88.66;96472.75;5161648;57;20134;-74
2021/07/08 07:38:41;;;;;;;15.35;12.48;;;;;;;19.30;89.73;96463.19;5161136;57;20129;-72
2021/07/08 07:43:45;;;;;;;15.57;11.85;;;;;;;19.78;88.14;96462.72;5162033;57;20188;-75
2021/07/08 07:48:48;;;;;;;12.95;11.52;;;;;;;19.80;87.42;96481.81;5160880;57;20134;-73
2021/07/08 07:53:55;;;;;;;12.32;10.95;;;;;;;19.84;87.61;96485.84;5161157;57;20666;-73
2021/07/08 07:58:57;;;;;;;13.38;10.50;;;;;;;19.64;89.16;96485.47;5160835;57;20569;-74
2021/07/08 08:04:00;;;;;;;11.38;9.85;;;;;;;19.78;87.91;96498.41;5160224;57;20147;-74
2021/07/08 08:09:03;;;;;;;12.43;9.55;;;;;;;19.90;87.99;96492.19;5155727;57;20134;-73
2021/07/08 08:14:06;;;;;;;11.63;10.02;;;;;;;19.85;88.40;96487.41;5154608;57;20152;-73
2021/07/08 08:19:08;;;;;;;10.63;8.55;;;;;;;20.01;88.35;96480.13;5134252;57;20130;-72
2021/07/08 08:24:11;;;;;;;12.45;10.23;;;;;;;19.68;88.86;96481.13;5134102;57;20674;-75
2021/07/08 08:29:16;;;;;;;14.65;10.68;;;;;;;19.72;89.06;96481.59;5145180;57;20139;-72
2021/07/08 08:34:18;;;;;;;13.40;10.65;;;;;;;19.75;89.21;96493.81;5158037;57;20670;-73
2021/07/08 08:39:20;;;;;;;15.35;10.52;;;;;;;19.83;88.29;96498.34;5150975;57;20130;-75
2021/07/08 08:44:23;;;;;;;11.32;10.23;;;;;;;19.88;88.02;96491.94;5147884;57;20125;-74
2021/07/08 08:49:25;;;;;;;14.40;10.90;;;;;;;20.15;86.43;96507.03;5143586;57;20125;-74
2021/07/08 08:54:27;;;;;;;19.90;11.85;;;;;;;20.10;86.87;96521.13;5157241;57;20138;-73
2021/07/08 08:59:30;;;;;;;13.40;12.00;;;;;;;20.12;87.06;96524.19;5140944;57;20560;-74
2021/07/08 09:04:33;;;;;;;13.93;11.02;;;;;;;20.46;85.98;96528.28;5148271;57;20129;-73
2021/07/08 09:09:36;;;;;;;13.95;11.75;;;;;;;20.08;87.41;96518.09;5151302;57;20210;-72
2021/07/08 09:14:38;;;;;;;14.15;12.68;;;;;;;20.50;87.95;96523.13;5136601;57;20178;-75
2021/07/08 09:19:41;;;;;;;13.80;12.20;;;;;;;21.21;84.00;96512.50;5130771;57;20122;-71
2021/07/08 09:24:43;;;;;;;17.35;12.85;;;;;;;21.23;84.47;96521.94;5145680;57;20117;-72
2021/07/08 09:29:49;;;;;;;16.13;14.15;;;;;;;20.73;85.40;96528.03;5143685;57;20613;-73
2021/07/08 09:34:53;;;;;;;14.80;13.30;;;;;;;20.50;85.30;96531.56;5150487;57;20591;-74
2021/07/08 09:39:58;;;;;;;17.63;14.70;;;;;;;20.04;88.16;96521.16;5144656;57;20112;-73
2021/07/08 09:45:18;;;;;;;21.13;17.00;;;;;;;19.82;88.27;96502.44;5138151;57;20112;-73
2021/07/08 09:50:26;;;;;;;21.33;16.00;;;;;;;20.33;86.45;96492.38;5148071;57;20122;-74
2021/07/08 09:55:33;;;;;;;16.88;14.98;;;;;;;21.44;82.73;96449.84;5138334;57;20702;-73
2021/07/08 10:00:36;;;;;;;20.27;14.88;;;;;;;21.97;77.95;96470.59;5140038;57;20134;-73
2021/07/08 10:05:39;;;;;;;15.77;13.93;;;;;;;21.91;80.65;96457.91;5139995;57;20244;-70
2021/07/08 10:10:41;;;;;;;14.15;11.88;;;;;;;22.29;77.94;96462.16;5139488;57;20613;-72
2021/07/08 10:15:45;;;;;;;14.30;12.57;;;;;;;21.67;78.73;96469.97;5139523;57;20144;-73
2021/07/08 10:20:54;;;;;;;16.98;12.93;;;;;;;21.63;78.89;96496.88;5140120;57;20223;-74
2021/07/08 10:25:56;;;;;;;13.95;12.45;;;;;;;21.37;79.56;96494.69;5139665;57;20165;-73
2021/07/08 10:31:16;;;;;;;14.70;12.77;;;;;;;21.34;82.19;96507.75;5139853;57;20135;-73
2021/07/08 10:36:31;;;;;;;15.25;12.82;;;;;;;21.56;81.24;96503.09;5155738;57;20724;-73
2021/07/08 10:41:33;;;;;;;16.67;13.48;;;;;;;21.37;82.84;96506.66;5158459;57;20147;-73
2021/07/08 10:46:38;;;;;;;18.52;12.15;;;;;;;21.18;83.75;96511.50;5158773;57;20143;-74
2021/07/08 10:51:44;;;;;;;15.30;12.93;;;;;;;21.41;83.21;96515.56;5159133;57;20599;-71
2021/07/08 10:56:50;;;;;;;16.65;13.23;;;;;;;21.62;83.34;96504.56;5157936;57;20120;-74
2021/07/08 11:01:54;;;;;;;15.70;13.38;;;;;;;21.54;82.66;96516.94;5159044;57;20116;-73
2021/07/08 11:07:19;;;;;;;21.77;14.90;;;;;;;21.67;83.16;96517.78;5159371;57;20209;-71
2021/07/08 11:12:29;;;;;;;14.13;12.63;;;;;;;21.66;83.00;96501.44;5158628;57;20134;-73
2021/07/08 11:17:42;;;;;;;15.50;13.80;;;;;;;21.86;78.72;96484.06;5158392;57;20120;-73
2021/07/08 11:22:45;;;;;;;15.05;13.30;;;;;;;21.93;78.57;96503.16;5158845;57;20231;-73
2021/07/08 11:27:48;;;;;;;15.82;13.15;;;;;;;21.37;81.21;96531.97;5158263;57;20129;-72
2021/07/08 11:32:57;;;;;;;15.13;13.52;;;;;;;21.66;82.00;96527.53;5159017;57;20134;-72
2021/07/08 11:38:05;;;;;;;15.13;13.45;;;;;;;21.34;82.09;96533.03;5149316;57;20144;-70
2021/07/08 11:43:22;;;;;;;17.55;14.35;;;;;;;21.15;82.28;96526.59;5144996;57;20130;-74
2021/07/08 11:48:31;;;;;;;17.80;14.02;;;;;;;21.27;84.47;96522.38;5145887;57;20672;-74
2021/07/08 11:53:33;;;;;;;17.80;15.55;;;;;;;20.77;83.93;96510.88;5140579;57;20133;-73
2021/07/08 11:58:36;;;;;;;17.33;15.13;;;;;;;20.78;84.27;96512.44;5144840;57;20674;-72
2021/07/08 12:03:44;;;;;;;16.98;13.75;;;;;;;21.53;82.06;96521.06;5143493;57;20125;-74
2021/07/08 12:08:47;;;;;;;16.23;13.75;;;;;;;21.24;81.49;96531.88;5140841;57;20236;-75
2021/07/08 12:13:56;;;;;;;17.58;13.85;;;;;;;21.47;82.90;96543.63;5142879;57;20134;-73
2021/07/08 12:19:00;;;;;;;17.30;14.57;;;;;;;21.06;83.47;96543.06;5145544;57;20420;-72
2021/07/08 12:24:04;;;;;;;16.95;13.48;;;;;;;21.07;84.03;96578.31;5157413;57;20200;-75
2021/07/08 12:29:33;;;;;;;17.00;12.73;;;;;;;20.84;84.46;96633.13;5147097;57;20690;-71
2021/07/08 12:34:42;;;;;;;16.52;14.45;;;;;;;20.37;87.20;96604.41;5140487;57;20139;-75
2021/07/08 12:39:52;;;;;;;20.88;16.05;;;;;;;19.98;92.35;96608.19;5144410;57;20139;-73
2021/07/08 12:44:58;;;;;;;15.43;10.20;;;;;;;19.78;92.26;96621.78;5165838;57;20131;-72
2021/07/08 12:50:03;;;;;;;8.68;7.72;;;;;;;19.49;92.99;96589.53;5156068;57;20650;-74
2021/07/08 12:55:07;;;;;;;7.97;6.43;;;;;;;19.61;93.53;96582.59;5152664;57;20138;-74
2021/07/08 13:00:12;;;;;;;6.28;5.68;;;;;;;19.30;94.75;96585.72;5146154;57;20200;-71
2021/07/08 13:05:14;;;;;;;5.22;4.82;;;;;;;19.08;94.10;96602.59;5143238;57;20148;-74
2021/07/08 13:10:18;;;;;;;3.47;3.05;;;;;;;19.33;91.94;96646.38;5146529;57;20666;-74
2021/07/08 13:15:22;;;;;;;2.30;2.10;;;;;;;19.26;91.01;96663.69;5160497;57;20129;-74
2021/07/08 13:20:27;;;;;;;2.03;1.90;;;;;;;19.14;89.74;96622.94;5159082;57;20134;-74
2021/07/08 13:25:31;;;;;;;2.17;1.73;;;;;;;19.13;89.81;96563.34;5156963;57;20133;-74
2021/07/08 13:30:35;;;;;;;2.92;2.45;;;;;;;19.48;90.09;96570.41;5158275;57;20129;-73
2021/07/08 13:35:50;;;;;;;7.72;2.88;;;;;;;19.98;89.30;96566.09;5156089;57;20139;-73
2021/07/08 13:41:05;;;;;;;4.28;2.13;;;;;;;19.98;87.88;96515.59;5156570;57;20147;-74
2021/07/08 13:46:14;;;;;;;2.60;2.08;;;;;;;19.75;88.96;96455.31;5153626;57;20129;-73
2021/07/08 13:51:18;;;;;;;;;;;;;;;20.12;87.51;96393.06;5147552;57;20157;-73
2021/07/08 13:56:20;;;;;;;1.92;1.80;;;;;;;20.54;85.48;96384.00;5138828;57;19986;-73
2021/07/08 14:01:23;;;;;;;3.38;1.80;;;;;;;20.81;84.84;96426.31;5139348;57;20649;-73
2021/07/08 14:06:26;;;;;;;2.60;2.05;;;;;;;20.55;86.32;96511.09;5150196;57;20135;-74
2021/07/08 14:11:29;;;;;;;1.83;1.73;;;;;;;20.01;88.00;96486.50;5135487;57;20131;-75
2021/07/08 14:16:33;;;;;;;1.83;1.58;;;;;;;20.34;87.75;96358.44;5138295;57;20148;-74
2021/07/08 14:21:35;;;;;;;2.13;1.48;;;;;;;22.93;81.48;96392.38;5148904;57;20698;-74
2021/07/08 14:26:38;;;;;;;1.40;1.30;;;;;;;24.36;69.81;96409.41;5153262;57;20134;-74
2021/07/08 14:31:40;;;;;;;1.23;1.23;;;;;;;24.94;70.42;96413.22;5157685;57;20143;-74
2021/07/08 14:36:43;;;;;;;1.10;1.10;;;;;;;24.62;69.35;96412.81;5144851;57;20215;-74
2021/07/08 14:41:50;;;;;;;1.55;1.30;;;;;;;23.82;73.27;96388.34;5145966;57;20129;-74
2021/07/08 14:46:55;;;;;;;1.40;0.90;;;;;;;23.14;75.60;96392.44;5148216;57;20125;-74
2021/07/08 14:51:58;;;;;;;0.63;0.63;;;;;;;22.59;74.63;96369.69;5137756;57;20147;-72
2021/07/08 14:57:00;;;;;;;0.85;0.82;;;;;;;22.50;76.32;96336.31;5144591;57;20692;-73
2021/07/08 15:02:03;;;;;;;1.58;1.00;;;;;;;22.81;76.03;96362.88;5144089;57;20122;-73
2021/07/08 15:07:05;;;;;;;0.88;0.80;;;;;;;22.49;77.48;96371.44;5137168;57;20135;-73
2021/07/08 15:12:08;;;;;;;1.00;1.00;;;;;;;21.89;79.31;96364.81;5145506;57;20113;-75
2021/07/08 15:17:12;;;;;;;0.82;0.82;;;;;;;21.22;80.43;96351.75;5154428;57;20121;-73
2021/07/08 15:22:14;;;;;;;2.13;1.10;;;;;;;20.80;82.81;96379.88;5137246;57;20121;-73
2021/07/08 15:27:19;;;;;;;1.45;1.00;;;;;;;20.25;84.66;96421.28;5138811;57;20152;-72
2021/07/08 15:32:22;;;;;;;1.00;1.00;;;;;;;19.98;86.88;96414.63;5145574;57;20784;-74
2021/07/08 15:37:25;;;;;;;1.65;1.30;;;;;;;19.79;87.56;96396.91;5143261;57;20603;-75
2021/07/08 15:42:28;;;;;;;1.23;1.20;;;;;;;19.50;89.15;96396.88;5146298;57;20133;-74
2021/07/08 15:47:30;;;;;;;4.43;1.55;;;;;;;19.50;88.73;96397.63;5141604;57;20695;-72
2021/07/08 15:52:33;;;;;;;9.68;1.35;;;;;;;19.55;88.83;96438.88;5140230;57;20143;-73
2021/07/08 15:57:36;;;;;;;1.48;1.27;;;;;;;19.19;89.75;96529.72;5147872;57;20108;-74
2021/07/08 16:02:38;;;;;;;2.33;1.45;;;;;;;18.94;90.90;96536.41;5148253;57;20578;-76
2021/07/08 16:07:41;;;;;;;1.23;1.23;;;;;;;18.77;92.59;96502.84;5135002;57;20165;-74
2021/07/08 16:12:43;;;;;;;2.13;1.73;;;;;;;18.67;92.90;96523.22;5146034;57;20134;-74
2021/07/08 16:17:46;;;;;;;3.90;1.63;;;;;;;18.79;92.08;96513.56;5140884;57;20131;-74
2021/07/08 16:22:48;;;;;;;2.65;1.75;;;;;;;18.65;92.02;96517.38;5141576;57;20697;-74
2021/07/08 16:27:50;;;;;;;1.88;1.60;;;;;;;18.77;92.10;96522.44;5140488;57;20122;-75
2021/07/08 16:32:53;;;;;;;3.70;1.75;;;;;;;18.72;92.37;96505.66;5143187;57;20156;-73
2021/07/08 16:37:56;;;;;;;1.85;1.75;;;;;;;18.57;92.14;96486.34;5146147;57;20126;-73
2021/07/08 16:42:59;;;;;;;1.67;1.58;;;;;;;18.76;92.40;96536.97;5141401;57;20130;-77
2021/07/08 16:48:03;;;;;;;4.78;1.80;;;;;;;18.67;92.04;96552.00;5148384;57;20117;-74
2021/07/08 16:53:06;;;;;;;1.30;1.30;;;;;;;18.51;90.70;96483.56;5144348;57;20148;-75
2021/07/08 16:58:09;;;;;;;1.48;1.38;;;;;;;18.63;91.02;96466.75;5139232;57;20130;-72
2021/07/08 17:03:12;;;;;;;2.80;1.20;;;;;;;18.53;90.08;96531.41;5141223;57;20151;-74
2021/07/08 17:08:14;;;;;;;1.70;1.40;;;;;;;18.33;91.71;96542.81;5140958;57;20126;-74
2021/07/08 17:13:17;;;;;;;2.67;1.42;;;;;;;18.16;91.21;96553.22;5146814;57;20161;-73
2021/07/08 17:18:19;;;;;;;1.17;1.17;;;;;;;18.31;90.88;96520.19;5139242;57;20742;-71
2021/07/08 17:23:22;;;;;;;3.65;1.50;;;;;;;18.42;90.56;96497.03;5140153;57;20130;-73
2021/07/08 17:28:24;;;;;;;1.42;1.20;;;;;;;18.32;90.83;96453.78;5139429;57;20245;-75
2021/07/08 17:33:27;;;;;;;1.42;1.20;;;;;;;18.23;90.02;96440.06;5139027;57;20125;-72
2021/07/08 17:38:29;;;;;;;1.75;1.00;;;;;;;18.22;91.23;96405.75;5143975;57;20126;-73
2021/07/08 17:43:32;;;;;;;1.90;1.40;;;;;;;18.16;90.26;96382.59;5149185;57;20746;-74
2021/07/08 17:48:36;;;;;;;2.95;1.50;;;;;;;18.40;90.40;96444.38;5145873;57;20139;-73
2021/07/08 17:53:38;;;;;;;2.15;1.42;;;;;;;18.38;89.98;96446.94;5150789;57;20143;-74
2021/07/08 17:58:42;;;;;;;1.25;1.15;;;;;;;18.44;90.69;96467.25;5144517;57;20122;-74
2021/07/08 18:03:45;;;;;;;2.38;1.33;;;;;;;18.40;89.61;96466.00;5159626;57;20130;-74
2021/07/08 18:08:47;;;;;;;2.30;1.48;;;;;;;18.47;90.34;96480.28;5159738;57;20116;-74
2021/07/08 18:13:49;;;;;;;1.98;1.25;;;;;;;18.44;88.97;96492.44;5161750;57;20286;-74
2021/07/08 18:18:52;;;;;;;1.50;1.40;;;;;;;18.18;89.82;96472.34;5161090;57;20599;-75
2021/07/08 18:23:55;;;;;;;1.10;1.10;;;;;;;18.19;89.81;96478.72;5156472;57;20125;-74
2021/07/08 18:28:57;;;;;;;2.20;1.40;;;;;;;17.99;89.24;96474.16;5159381;57;20125;-74
2021/07/08 18:34:00;;;;;;;1.92;1.33;;;;;;;17.68;90.34;96475.16;5159171;57;20617;-74
2021/07/08 18:39:03;;;;;;;1.40;1.30;;;;;;;17.79;90.54;96493.97;5159532;57;20108;-75
2021/07/08 18:44:07;;;;;;;1.88;1.20;;;;;;;17.78;89.97;96486.81;5159684;57;20219;-74
2021/07/08 18:49:09;;;;;;;1.90;1.35;;;;;;;17.68;90.58;96514.28;5168073;57;20148;-76
2021/07/08 18:54:12;;;;;;;1.23;1.08;;;;;;;17.54;90.82;96508.88;5175614;57;20676;-75
2021/07/08 18:59:14;;;;;;;1.00;1.00;;;;;;;17.61;91.24;96508.41;5167059;57;20161;-75
2021/07/08 19:04:16;;;;;;;2.08;1.10;;;;;;;17.43;91.22;96489.28;5169190;57;20129;-75
2021/07/08 19:09:19;;;;;;;1.08;1.08;;;;;;;17.43;91.24;96501.22;5169477;57;20591;-74
2021/07/08 19:14:21;;;;;;;1.48;1.10;;;;;;;17.54;91.13;96509.66;5156022;57;20147;-72
2021/07/08 19:19:43;;;;;;;1.42;1.38;;;;;;;17.33;92.20;96491.53;5156768;57;20174;-73
2021/07/08 19:24:48;;;;;;;2.60;1.58;;;;;;;17.20;92.64;96450.09;5151421;57;20134;-73
2021/07/08 19:29:51;;;;;;;1.83;1.35;;;;;;;17.25;93.23;96450.63;5165821;57;20117;-71
2021/07/08 19:34:55;;;;;;;2.78;1.80;;;;;;;17.32;93.12;96472.47;5157209;57;20139;-73
2021/07/08 19:39:57;;;;;;;4.50;1.50;;;;;;;17.38;92.05;96501.94;5160050;57;20134;-72
2021/07/08 19:45:00;;;;;;;1.00;1.00;;;;;;;17.17;92.33;96492.22;5161150;57;20128;-71
2021/07/08 19:50:08;;;;;;;4.55;1.10;;;;;;;17.03;92.00;96504.34;5159986;57;20138;-73
2021/07/08 19:55:11;;;;;;;2.55;1.23;;;;;;;16.98;91.33;96519.78;5158720;57;20840;-73
2021/07/08 20:00:14;;;;;;;3.17;1.00;;;;;;;16.93;91.44;96517.75;5156843;57;20655;-71
2021/07/08 20:05:16;;;;;;;1.02;1.02;;;;;;;16.97;92.09;96553.81;5158933;57;20134;-72
2021/07/08 20:10:20;;;;;;;0.88;0.85;;;;;;;16.93;92.31;96562.44;5160588;57;20129;-73
2021/07/08 20:15:22;;;;;;;0.70;0.70;;;;;;;16.97;92.07;96557.38;5160416;57;20235;-73
2021/07/08 20:20:25;;;;;;;0.93;0.90;;;;;;;16.95;92.59;96554.31;5158833;57;20213;-72
2021/07/08 20:25:27;;;;;;;1.33;0.90;;;;;;;16.74;93.49;96560.50;5160272;57;20121;-72
2021/07/08 20:30:30;;;;;;;0.90;0.90;;;;;;;16.85;92.87;96549.41;5159555;57;20741;-73
2021/07/08 20:35:32;;;;;;;2.90;1.00;;;;;;;16.82;93.47;96534.44;5159556;57;20179;-71
2021/07/08 20:40:36;;;;;;;1.00;0.90;;;;;;;16.87;93.26;96535.75;5164249;57;20160;-73
2021/07/08 20:45:46;;;;;;;0.70;0.70;;;;;;;16.94;93.39;96555.56;5163347;57;20278;-72
2021/07/08 20:50:49;;;;;;;1.08;0.95;;;;;;;16.91;93.03;96559.38;5159472;57;20159;-73
2021/07/08 20:55:51;;;;;;;1.42;0.90;;;;;;;16.74;94.55;96550.13;5158039;57;20142;-73
2021/07/08 21:00:54;;;;;;;0.80;0.80;;;;;;;16.89;93.22;96561.88;5159327;57;20129;-72
2021/07/08 21:05:57;;;;;;;3.20;0.80;;;;;;;16.97;93.09;96565.75;5159441;57;20125;-73
2021/07/08 21:10:59;;;;;;;6.70;1.13;;;;;;;16.93;93.63;96570.81;5159452;57;20107;-72
2021/07/08 21:16:02;;;;;;;3.35;1.10;;;;;;;16.90;93.79;96596.91;5158240;57;20152;-71
2021/07/08 21:21:04;;;;;;;0.82;0.80;;;;;;;16.85;93.89;96603.22;5158553;57;20158;-75
2021/07/08 21:26:07;;;;;;;0.75;0.75;;;;;;;16.87;93.77;96605.53;5158880;57;20226;-74
2021/07/08 21:31:09;;;;;;;1.70;1.00;;;;;;;16.85;93.30;96597.63;5159436;57;20120;-73
2021/07/08 21:36:12;;;;;;;3.17;0.98;;;;;;;16.77;94.24;96606.97;5161617;57;20129;-72
2021/07/08 21:41:26;;;;;;;0.80;0.80;;;;;;;16.76;94.25;96606.19;5160116;57;20658;-74
2021/07/08 21:46:28;;;;;;;4.82;1.10;;;;;;;16.77;94.74;96609.75;5159012;57;20191;-72
2021/07/08 21:51:36;;;;;;;1.02;0.73;;;;;;;16.62;95.06;96618.28;5159411;57;20128;-72
2021/07/08 21:56:39;;;;;;;1.10;1.00;;;;;;;16.62;95.70;96623.09;5159141;57;20129;-72
2021/07/08 22:01:41;;;;;;;0.98;0.88;;;;;;;16.62;95.41;96612.69;5159440;57;20139;-73
2021/07/08 22:06:43;;;;;;;0.68;0.68;;;;;;;16.77;94.68;96596.56;5159453;57;20151;-74
2021/07/08 22:11:47;;;;;;;3.72;1.00;;;;;;;16.81;94.85;96582.38;5159148;57;20129;-72
2021/07/08 22:16:49;;;;;;;2.08;0.80;;;;;;;16.76;94.43;96533.63;5158775;57;20130;-71
2021/07/08 22:21:52;;;;;;;1.17;0.93;;;;;;;16.76;94.07;96488.22;5156932;57;20233;-72
2021/07/08 22:26:59;;;;;;;0.70;0.70;;;;;;;16.79;94.26;96423.78;5158818;57;20134;-72
2021/07/08 22:32:01;;;;;;;2.80;0.80;;;;;;;16.63;94.60;96353.97;5156788;57;20688;-72
2021/07/08 22:37:04;;;;;;;1.27;0.90;;;;;;;16.57;94.83;96295.38;5155069;57;20146;-74
2021/07/08 22:42:23;;;;;;;1.25;1.00;;;;;;;16.64;94.33;96373.00;5149298;57;20233;-73
2021/07/08 22:47:26;;;;;;;1.33;1.00;;;;;;;16.56;94.79;96427.75;5158397;57;20134;-72
2021/07/08 22:52:28;;;;;;;0.68;0.68;;;;;;;16.47;94.80;96461.38;5158599;57;20103;-72
2021/07/08 22:57:45;;;;;;;0.80;0.80;;;;;;;16.44;94.76;96459.59;5159001;57;20129;-74
2021/07/08 23:02:48;;;;;;;1.10;1.10;;;;;;;16.23;95.07;96431.06;5158785;57;20147;-71
2021/07/08 23:07:50;;;;;;;1.10;1.00;;;;;;;16.38;94.80;96426.09;5158378;57;20615;-72
2021/07/08 23:12:52;;;;;;;0.85;0.80;;;;;;;16.40;94.21;96454.25;5157397;57;20133;-71
2021/07/08 23:18:15;;;;;;;0.90;0.80;;;;;;;16.36;94.38;96448.13;5157427;57;20190;-72
2021/07/08 23:23:17;;;;;;;4.22;0.73;;;;;;;16.27;93.46;96431.59;5157841;57;20143;-73
2021/07/08 23:28:20;;;;;;;0.60;0.60;;;;;;;16.31;93.43;96443.28;5168911;57;20094;-72
2021/07/08 23:33:22;;;;;;;1.75;0.63;;;;;;;16.30;93.24;96454.94;5170909;57;20129;-71
2021/07/08 23:38:24;;;;;;;0.65;0.65;;;;;;;16.09;93.60;96447.94;5158148;57;20199;-72
